createdAt,value
2019-02-17T00:00:22.171Z,21.54
2019-02-17T00:01:22.140Z,21.53
2019-02-17T00:02:22.138Z,21.54
2019-02-17T00:03:22.176Z,21.54
2019-02-17T00:04:22.125Z,21.52
2019-02-17T00:05:22.094Z,21.53
2019-02-17T00:06:22.599Z,21.58
2019-02-17T00:07:22.075Z,21.59
2019-02-17T00:08:22.059Z,21.58
2019-02-17T00:09:22.110Z,21.56
2019-02-17T00:10:22.039Z,21.52
2019-02-17T00:11:22.603Z,21.53
2019-02-17T00:12:22.018Z,21.50
2019-02-17T00:13:22.005Z,21.50
2019-02-17T00:14:23.898Z,21.54
2019-02-17T00:15:21.990Z,21.59
2019-02-17T00:16:21.976Z,21.49
2019-02-17T00:17:21.971Z,21.53
2019-02-17T00:18:22.597Z,21.56
2019-02-17T00:19:21.956Z,21.47
2019-02-17T00:20:21.936Z,21.42
2019-02-17T00:21:21.985Z,21.54
2019-02-17T00:22:21.921Z,21.50
2019-02-17T00:23:21.898Z,21.59
2019-02-17T00:24:22.113Z,21.44
2019-02-17T00:25:21.879Z,21.47
2019-02-17T00:26:21.864Z,21.50
2019-02-17T00:27:21.856Z,21.46
2019-02-17T00:28:21.843Z,21.46
2019-02-17T00:29:22.118Z,21.47
2019-02-17T00:30:21.838Z,21.43
2019-02-17T00:31:21.813Z,21.52
2019-02-17T00:32:21.801Z,21.54
2019-02-17T00:33:21.794Z,21.43
2019-02-17T00:34:21.792Z,21.54
2019-02-17T00:35:21.780Z,21.46
2019-02-17T00:36:21.758Z,21.53
2019-02-17T00:37:21.751Z,21.43
2019-02-17T00:38:21.737Z,21.49
2019-02-17T00:39:21.743Z,21.37
2019-02-17T00:40:21.713Z,21.50
2019-02-17T00:41:21.703Z,21.37
2019-02-17T00:42:21.696Z,21.47
2019-02-17T00:43:21.687Z,21.38
2019-02-17T00:44:21.688Z,21.34
2019-02-17T00:45:21.657Z,21.38
2019-02-17T00:46:21.650Z,21.38
2019-02-17T00:47:21.641Z,21.46
2019-02-17T00:48:21.628Z,21.46
2019-02-17T00:49:21.640Z,21.42
2019-02-17T00:50:22.598Z,21.42
2019-02-17T00:51:22.097Z,21.40
2019-02-17T00:52:21.579Z,21.38
2019-02-17T00:53:22.099Z,21.44
2019-02-17T00:54:21.612Z,21.44
2019-02-17T00:55:21.549Z,21.42
2019-02-17T00:56:21.542Z,21.42
2019-02-17T00:57:21.528Z,21.38
2019-02-17T00:58:21.525Z,21.44
2019-02-17T00:59:21.523Z,21.42
2019-02-17T01:00:21.499Z,21.38
2019-02-17T01:01:21.486Z,21.43
2019-02-17T01:02:21.475Z,21.42
2019-02-17T01:03:21.464Z,21.40
2019-02-17T01:04:21.476Z,21.40
2019-02-17T01:05:21.447Z,21.40
2019-02-17T01:06:21.435Z,21.38
2019-02-17T01:07:21.425Z,21.37
2019-02-17T01:08:21.420Z,21.38
2019-02-17T01:09:21.411Z,21.40
2019-02-17T01:10:21.388Z,21.38
2019-02-17T01:11:21.386Z,21.38
2019-02-17T01:12:22.112Z,21.38
2019-02-17T01:13:21.365Z,21.37
2019-02-17T01:14:21.614Z,21.34
2019-02-17T01:15:21.330Z,21.44
2019-02-17T01:16:21.320Z,21.35
2019-02-17T01:17:22.101Z,21.42
2019-02-17T01:18:22.116Z,21.43
2019-02-17T01:19:21.312Z,21.37
2019-02-17T01:20:21.286Z,21.31
2019-02-17T01:21:21.269Z,21.46
2019-02-17T01:22:22.103Z,21.46
2019-02-17T01:23:21.255Z,21.31
2019-02-17T01:24:21.254Z,21.42
2019-02-17T01:25:21.239Z,21.34
2019-02-17T01:26:21.215Z,21.35
2019-02-17T01:27:21.205Z,21.37
2019-02-17T01:28:21.201Z,21.40
2019-02-17T01:29:21.203Z,21.31
2019-02-17T01:30:21.174Z,21.35
2019-02-17T01:31:22.111Z,21.34
2019-02-17T01:32:22.105Z,21.32
2019-02-17T01:33:21.139Z,21.35
2019-02-17T01:34:21.157Z,21.34
2019-02-17T01:35:22.106Z,21.35
2019-02-17T01:36:21.106Z,21.28
2019-02-17T01:37:21.091Z,21.34
2019-02-17T01:38:21.082Z,21.35
2019-02-17T01:39:21.302Z,21.37
2019-02-17T01:40:21.064Z,21.32
2019-02-17T01:41:21.607Z,21.35
2019-02-17T01:42:21.040Z,21.35
2019-02-17T01:43:21.027Z,21.35
2019-02-17T01:44:21.035Z,21.32
2019-02-17T01:45:21.021Z,21.37
2019-02-17T01:46:20.994Z,21.37
2019-02-17T01:47:20.985Z,21.43
2019-02-17T01:48:21.619Z,21.32
2019-02-17T01:49:20.973Z,21.37
2019-02-17T01:50:20.968Z,21.34
2019-02-17T01:51:20.944Z,21.24
2019-02-17T01:52:20.937Z,21.38
2019-02-17T01:53:20.918Z,21.29
2019-02-17T01:54:20.907Z,21.35
2019-02-17T01:55:21.128Z,21.32
2019-02-17T01:56:21.623Z,21.38
2019-02-17T01:57:20.881Z,21.37
2019-02-17T01:58:20.864Z,21.40
2019-02-17T01:59:30.194Z,21.32
2019-02-17T02:00:20.880Z,21.35
2019-02-17T02:01:20.867Z,21.38
2019-02-17T02:02:20.822Z,21.32
2019-02-17T02:03:20.808Z,21.37
2019-02-17T02:04:20.799Z,21.31
2019-02-17T02:05:20.812Z,21.31
2019-02-17T02:06:20.776Z,21.35
2019-02-17T02:07:20.765Z,21.31
2019-02-17T02:08:20.754Z,21.34
2019-02-17T02:09:21.606Z,21.31
2019-02-17T02:10:20.761Z,21.32
2019-02-17T02:11:20.722Z,21.40
2019-02-17T02:12:20.712Z,21.37
2019-02-17T02:13:20.700Z,21.32
2019-02-17T02:14:20.688Z,21.31
2019-02-17T02:15:20.694Z,21.40
2019-02-17T02:16:20.665Z,21.28
2019-02-17T02:17:20.706Z,21.31
2019-02-17T02:18:21.606Z,21.40
2019-02-17T02:19:20.633Z,21.31
2019-02-17T02:20:20.642Z,21.35
2019-02-17T02:21:20.615Z,21.34
2019-02-17T02:22:21.113Z,21.34
2019-02-17T02:23:21.125Z,21.32
2019-02-17T02:24:20.583Z,21.28
2019-02-17T02:25:20.631Z,21.31
2019-02-17T02:26:20.566Z,21.32
2019-02-17T02:27:21.115Z,21.38
2019-02-17T02:28:20.533Z,21.31
2019-02-17T02:29:20.530Z,21.34
2019-02-17T02:30:20.538Z,21.37
2019-02-17T02:31:21.113Z,21.25
2019-02-17T02:32:20.495Z,21.31
2019-02-17T02:33:20.480Z,21.28
2019-02-17T02:34:20.469Z,21.28
2019-02-17T02:35:20.484Z,21.32
2019-02-17T02:36:21.124Z,21.27
2019-02-17T02:37:20.439Z,21.22
2019-02-17T02:38:20.425Z,21.37
2019-02-17T02:39:20.416Z,21.32
2019-02-17T02:40:20.474Z,21.34
2019-02-17T02:41:21.106Z,21.19
2019-02-17T02:42:21.110Z,21.32
2019-02-17T02:43:20.375Z,21.29
2019-02-17T02:44:20.360Z,21.32
2019-02-17T02:45:20.645Z,21.32
2019-02-17T02:46:20.336Z,21.22
2019-02-17T02:47:20.327Z,21.37
2019-02-17T02:48:21.109Z,21.24
2019-02-17T02:49:20.311Z,21.22
2019-02-17T02:50:20.339Z,21.32
2019-02-17T02:51:21.123Z,21.22
2019-02-17T02:52:20.273Z,21.31
2019-02-17T02:53:20.263Z,21.25
2019-02-17T02:54:20.255Z,21.28
2019-02-17T02:55:20.252Z,21.19
2019-02-17T02:56:21.106Z,21.31
2019-02-17T02:57:20.218Z,21.17
2019-02-17T02:58:20.207Z,21.25
2019-02-17T02:59:21.122Z,21.22
2019-02-17T03:00:20.203Z,21.29
2019-02-17T03:01:20.178Z,21.27
2019-02-17T03:02:20.165Z,21.27
2019-02-17T03:03:20.157Z,21.29
2019-02-17T03:04:20.141Z,21.27
2019-02-17T03:05:20.158Z,21.27
2019-02-17T03:06:20.124Z,21.25
2019-02-17T03:07:20.110Z,21.27
2019-02-17T03:08:20.099Z,21.25
2019-02-17T03:09:20.098Z,21.27
2019-02-17T03:10:20.155Z,21.24
2019-02-17T03:11:20.609Z,21.25
2019-02-17T03:12:20.055Z,21.24
2019-02-17T03:13:20.612Z,21.25
2019-02-17T03:14:20.032Z,21.27
2019-02-17T03:15:20.061Z,21.28
2019-02-17T03:16:20.042Z,21.22
2019-02-17T03:17:20.610Z,21.24
2019-02-17T03:18:19.991Z,21.29
2019-02-17T03:19:20.609Z,21.21
2019-02-17T03:20:19.980Z,21.28
2019-02-17T03:21:19.976Z,21.29
2019-02-17T03:22:19.980Z,21.24
2019-02-17T03:23:19.949Z,21.22
2019-02-17T03:24:19.926Z,21.24
2019-02-17T03:25:19.935Z,21.25
2019-02-17T03:26:19.915Z,21.24
2019-02-17T03:27:19.902Z,21.27
2019-02-17T03:28:19.883Z,21.24
2019-02-17T03:29:19.877Z,21.29
2019-02-17T03:30:19.910Z,21.22
2019-02-17T03:31:19.856Z,21.24
2019-02-17T03:32:19.858Z,21.27
2019-02-17T03:33:20.619Z,21.27
2019-02-17T03:34:20.605Z,21.19
2019-02-17T03:35:19.824Z,21.27
2019-02-17T03:36:19.799Z,21.27
2019-02-17T03:37:19.790Z,21.22
2019-02-17T03:38:19.773Z,21.24
2019-02-17T03:39:20.611Z,21.22
2019-02-17T03:40:19.773Z,21.27
2019-02-17T03:41:19.842Z,21.22
2019-02-17T03:42:19.741Z,21.19
2019-02-17T03:43:19.717Z,21.24
2019-02-17T03:44:19.707Z,21.16
2019-02-17T03:45:19.729Z,21.13
2019-02-17T03:46:19.699Z,21.19
2019-02-17T03:47:19.697Z,21.24
2019-02-17T03:48:19.659Z,21.19
2019-02-17T03:49:19.652Z,21.21
2019-02-17T03:50:20.606Z,21.21
2019-02-17T03:51:19.663Z,21.17
2019-02-17T03:52:19.627Z,21.19
2019-02-17T03:53:19.607Z,21.14
2019-02-17T03:54:19.597Z,21.19
2019-02-17T03:55:20.115Z,21.14
2019-02-17T03:56:19.597Z,21.14
2019-02-17T03:57:20.121Z,21.12
2019-02-17T03:58:19.556Z,21.14
2019-02-17T03:59:19.542Z,21.13
2019-02-17T04:00:19.536Z,21.14
2019-02-17T04:01:19.625Z,21.13
2019-02-17T04:02:19.511Z,21.09
2019-02-17T04:03:19.521Z,21.12
2019-02-17T04:04:20.113Z,21.17
2019-02-17T04:05:19.476Z,21.21
2019-02-17T04:06:19.480Z,21.13
2019-02-17T04:07:19.464Z,21.14
2019-02-17T04:08:19.453Z,21.16
2019-02-17T04:09:20.111Z,21.14
2019-02-17T04:10:19.422Z,21.10
2019-02-17T04:11:19.435Z,21.12
2019-02-17T04:12:19.413Z,21.14
2019-02-17T04:13:19.395Z,21.13
2019-02-17T04:14:19.383Z,21.17
2019-02-17T04:15:20.112Z,21.13
2019-02-17T04:16:19.383Z,21.13
2019-02-17T04:17:19.347Z,21.13
2019-02-17T04:18:19.343Z,21.06
2019-02-17T04:19:19.324Z,21.09
2019-02-17T04:20:20.116Z,21.14
2019-02-17T04:21:19.324Z,21.10
2019-02-17T04:22:19.309Z,21.10
2019-02-17T04:23:30.460Z,21.04
2019-02-17T04:24:19.273Z,21.13
2019-02-17T04:25:19.287Z,21.13
2019-02-17T04:26:19.625Z,21.12
2019-02-17T04:27:19.235Z,21.10
2019-02-17T04:28:19.241Z,21.10
2019-02-17T04:29:19.238Z,21.12
2019-02-17T04:30:28.756Z,21.12
2019-02-17T04:31:19.211Z,21.06
2019-02-17T04:32:19.202Z,21.10
2019-02-17T04:33:19.209Z,21.09
2019-02-17T04:34:19.197Z,21.12
2019-02-17T04:35:19.157Z,21.16
2019-02-17T04:36:19.209Z,21.07
2019-02-17T04:37:20.170Z,21.12
2019-02-17T04:38:19.147Z,21.13
2019-02-17T04:39:19.142Z,21.07
2019-02-17T04:40:19.096Z,21.10
2019-02-17T04:41:19.107Z,21.03
2019-02-17T04:42:19.100Z,21.12
2019-02-17T04:43:19.085Z,21.07
2019-02-17T04:44:19.063Z,21.07
2019-02-17T04:45:19.040Z,21.07
2019-02-17T04:46:19.041Z,21.06
2019-02-17T04:47:19.032Z,21.12
2019-02-17T04:48:19.005Z,21.07
2019-02-17T04:49:18.996Z,21.06
2019-02-17T04:50:19.001Z,21.14
2019-02-17T04:51:19.029Z,21.03
2019-02-17T04:52:18.965Z,21.04
2019-02-17T04:53:18.959Z,21.14
2019-02-17T04:54:18.957Z,21.09
2019-02-17T04:55:18.938Z,20.99
2019-02-17T04:56:18.935Z,21.03
2019-02-17T04:57:18.917Z,21.10
2019-02-17T04:58:18.904Z,21.04
2019-02-17T04:59:18.892Z,21.06
2019-02-17T05:00:18.879Z,21.03
2019-02-17T05:01:19.130Z,21.04
2019-02-17T05:02:18.856Z,21.06
2019-02-17T05:03:18.846Z,21.04
2019-02-17T05:04:18.840Z,21.07
2019-02-17T05:05:18.826Z,20.99
2019-02-17T05:06:18.833Z,21.10
2019-02-17T05:07:19.615Z,21.06
2019-02-17T05:08:18.792Z,21.01
2019-02-17T05:09:18.780Z,21.07
2019-02-17T05:10:18.772Z,21.01
2019-02-17T05:11:18.770Z,21.01
2019-02-17T05:12:18.751Z,21.03
2019-02-17T05:13:18.766Z,21.03
2019-02-17T05:14:18.726Z,21.04
2019-02-17T05:15:19.623Z,21.06
2019-02-17T05:16:18.720Z,21.07
2019-02-17T05:17:18.693Z,21.03
2019-02-17T05:18:18.684Z,21.09
2019-02-17T05:19:18.672Z,21.03
2019-02-17T05:20:18.668Z,21.06
2019-02-17T05:21:19.661Z,21.01
2019-02-17T05:22:19.616Z,21.06
2019-02-17T05:23:18.624Z,21.04
2019-02-17T05:24:19.113Z,21.03
2019-02-17T05:25:18.618Z,21.04
2019-02-17T05:26:18.617Z,21.03
2019-02-17T05:27:19.120Z,21.07
2019-02-17T05:28:18.574Z,21.04
2019-02-17T05:29:19.118Z,20.99
2019-02-17T05:30:18.553Z,20.99
2019-02-17T05:31:18.552Z,20.98
2019-02-17T05:32:18.529Z,20.95
2019-02-17T05:33:18.523Z,21.04
2019-02-17T05:34:19.133Z,21.03
2019-02-17T05:35:18.499Z,20.98
2019-02-17T05:36:18.504Z,20.92
2019-02-17T05:37:18.476Z,20.97
2019-02-17T05:38:18.466Z,20.95
2019-02-17T05:39:19.120Z,20.97
2019-02-17T05:40:18.452Z,20.95
2019-02-17T05:41:18.642Z,20.97
2019-02-17T05:42:18.420Z,21.01
2019-02-17T05:43:18.411Z,20.95
2019-02-17T05:44:18.400Z,20.99
2019-02-17T05:45:18.401Z,20.94
2019-02-17T05:46:18.627Z,20.97
2019-02-17T05:47:18.394Z,20.94
2019-02-17T05:48:18.359Z,21.01
2019-02-17T05:49:18.347Z,20.91
2019-02-17T05:50:18.345Z,20.91
2019-02-17T05:51:18.364Z,20.94
2019-02-17T05:52:19.120Z,20.88
2019-02-17T05:53:18.301Z,20.91
2019-02-17T05:54:18.292Z,20.92
2019-02-17T05:55:18.288Z,20.89
2019-02-17T05:56:19.130Z,20.94
2019-02-17T05:57:18.277Z,20.87
2019-02-17T05:58:18.242Z,20.87
2019-02-17T05:59:18.234Z,20.88
2019-02-17T06:00:18.234Z,20.94
2019-02-17T06:01:19.130Z,20.91
2019-02-17T06:02:18.218Z,20.92
2019-02-17T06:03:18.191Z,20.88
2019-02-17T06:04:18.184Z,20.95
2019-02-17T06:05:18.181Z,20.89
2019-02-17T06:06:18.181Z,20.91
2019-02-17T06:07:18.639Z,20.91
2019-02-17T06:08:19.116Z,20.95
2019-02-17T06:09:18.126Z,20.92
2019-02-17T06:10:18.128Z,20.91
2019-02-17T06:11:18.106Z,20.95
2019-02-17T06:12:18.753Z,20.88
2019-02-17T06:13:18.627Z,20.92
2019-02-17T06:14:18.073Z,20.87
2019-02-17T06:15:18.624Z,20.89
2019-02-17T06:16:18.053Z,20.88
2019-02-17T06:17:18.067Z,20.88
2019-02-17T06:18:18.033Z,20.94
2019-02-17T06:19:18.016Z,20.91
2019-02-17T06:20:18.637Z,20.91
2019-02-17T06:21:17.993Z,20.82
2019-02-17T06:22:18.007Z,20.92
2019-02-17T06:23:17.978Z,20.88
2019-02-17T06:24:17.961Z,20.91
2019-02-17T06:25:17.967Z,20.88
2019-02-17T06:26:18.638Z,20.88
2019-02-17T06:27:17.947Z,20.85
2019-02-17T06:28:17.920Z,20.85
2019-02-17T06:29:17.910Z,20.88
2019-02-17T06:30:17.913Z,20.91
2019-02-17T06:31:18.626Z,20.89
2019-02-17T06:32:17.888Z,20.87
2019-02-17T06:33:17.867Z,20.87
2019-02-17T06:34:17.853Z,20.87
2019-02-17T06:35:17.847Z,20.89
2019-02-17T06:36:18.623Z,20.85
2019-02-17T06:37:18.137Z,20.84
2019-02-17T06:38:18.621Z,20.88
2019-02-17T06:39:17.802Z,20.85
2019-02-17T06:40:17.789Z,20.84
2019-02-17T06:41:17.780Z,20.87
2019-02-17T06:42:17.790Z,20.87
2019-02-17T06:43:17.758Z,20.87
2019-02-17T06:44:17.762Z,20.91
2019-02-17T06:45:19.610Z,20.84
2019-02-17T06:46:17.729Z,20.92
2019-02-17T06:47:17.729Z,20.88
2019-02-17T06:48:18.630Z,20.88
2019-02-17T06:49:17.696Z,20.82
2019-02-17T06:50:17.704Z,20.87
2019-02-17T06:51:17.675Z,20.91
2019-02-17T06:52:18.129Z,20.87
2019-02-17T06:53:18.639Z,20.87
2019-02-17T06:54:18.636Z,20.89
2019-02-17T06:55:17.629Z,20.82
2019-02-17T06:56:17.619Z,20.87
2019-02-17T06:57:17.622Z,20.88
2019-02-17T06:58:18.123Z,20.85
2019-02-17T06:59:17.586Z,20.84
2019-02-17T07:00:17.571Z,20.82
2019-02-17T07:01:24.638Z,20.89
2019-02-17T07:02:17.569Z,20.84
2019-02-17T07:03:17.560Z,20.87
2019-02-17T07:04:17.551Z,20.87
2019-02-17T07:05:17.525Z,20.87
2019-02-17T07:06:17.512Z,20.79
2019-02-17T07:07:17.523Z,20.84
2019-02-17T07:08:17.490Z,20.88
2019-02-17T07:09:17.475Z,20.85
2019-02-17T07:10:17.465Z,20.85
2019-02-17T07:11:17.465Z,20.84
2019-02-17T07:12:17.634Z,20.80
2019-02-17T07:13:18.122Z,20.87
2019-02-17T07:14:17.422Z,20.87
2019-02-17T07:15:17.411Z,20.84
2019-02-17T07:16:17.413Z,20.88
2019-02-17T07:17:17.632Z,20.80
2019-02-17T07:18:17.392Z,20.91
2019-02-17T07:19:17.371Z,20.80
2019-02-17T07:20:17.360Z,20.79
2019-02-17T07:21:17.356Z,20.85
2019-02-17T07:22:17.352Z,20.82
2019-02-17T07:23:17.330Z,20.89
2019-02-17T07:24:18.138Z,20.89
2019-02-17T07:25:17.305Z,20.85
2019-02-17T07:26:17.460Z,20.87
2019-02-17T07:27:17.646Z,20.76
2019-02-17T07:28:17.269Z,20.85
2019-02-17T07:29:17.257Z,20.74
2019-02-17T07:30:18.122Z,20.74
2019-02-17T07:31:18.126Z,20.85
2019-02-17T07:32:17.328Z,20.73
2019-02-17T07:33:17.219Z,20.77
2019-02-17T07:34:17.206Z,20.82
2019-02-17T07:35:17.196Z,20.82
2019-02-17T07:36:17.181Z,20.79
2019-02-17T07:37:19.325Z,20.76
2019-02-17T07:38:18.121Z,20.87
2019-02-17T07:39:17.155Z,20.87
2019-02-17T07:40:17.148Z,20.77
2019-02-17T07:41:18.127Z,20.84
2019-02-17T07:42:17.185Z,20.77
2019-02-17T07:43:17.116Z,20.79
2019-02-17T07:44:17.093Z,20.79
2019-02-17T07:45:17.622Z,20.76
2019-02-17T07:46:17.622Z,20.74
2019-02-17T07:47:18.076Z,20.84
2019-02-17T07:48:17.049Z,20.84
2019-02-17T07:49:17.039Z,20.76
2019-02-17T07:50:17.628Z,20.84
2019-02-17T07:51:17.026Z,20.74
2019-02-17T07:52:17.040Z,20.84
2019-02-17T07:53:16.998Z,20.73
2019-02-17T07:54:16.988Z,20.85
2019-02-17T07:55:17.626Z,20.79
2019-02-17T07:56:16.967Z,20.77
2019-02-17T07:57:16.980Z,20.79
2019-02-17T07:58:16.941Z,20.87
2019-02-17T07:59:16.934Z,20.73
2019-02-17T08:00:16.935Z,20.85
2019-02-17T08:01:16.910Z,20.76
2019-02-17T08:02:17.149Z,20.82
2019-02-17T08:03:17.640Z,20.79
2019-02-17T08:04:16.876Z,20.87
2019-02-17T08:05:16.866Z,20.79
2019-02-17T08:06:17.629Z,20.73
2019-02-17T08:07:16.845Z,20.76
2019-02-17T08:08:17.156Z,20.85
2019-02-17T08:09:16.822Z,20.80
2019-02-17T08:10:17.623Z,20.84
2019-02-17T08:11:17.627Z,20.74
2019-02-17T08:12:17.627Z,20.80
2019-02-17T08:13:17.149Z,20.74
2019-02-17T08:14:17.628Z,20.77
2019-02-17T08:15:16.759Z,20.85
2019-02-17T08:16:16.746Z,20.88
2019-02-17T08:17:16.736Z,20.85
2019-02-17T08:18:16.744Z,20.89
2019-02-17T08:19:17.627Z,20.85
2019-02-17T08:20:16.704Z,20.85
2019-02-17T08:21:17.626Z,20.84
2019-02-17T08:22:17.626Z,20.87
2019-02-17T08:23:16.690Z,20.87
2019-02-17T08:24:16.657Z,20.87
2019-02-17T08:25:21.703Z,20.85
2019-02-17T08:26:16.642Z,20.87
2019-02-17T08:27:17.143Z,20.91
2019-02-17T08:28:16.633Z,20.91
2019-02-17T08:29:16.607Z,20.89
2019-02-17T08:30:17.135Z,20.89
2019-02-17T08:31:16.592Z,20.87
2019-02-17T08:32:16.572Z,20.87
2019-02-17T08:33:16.578Z,20.85
2019-02-17T08:34:16.564Z,20.87
2019-02-17T08:35:17.132Z,20.88
2019-02-17T08:36:17.127Z,20.91
2019-02-17T08:37:16.521Z,20.97
2019-02-17T08:38:16.528Z,20.87
2019-02-17T08:39:17.128Z,20.89
2019-02-17T08:40:16.486Z,20.88
2019-02-17T08:41:16.473Z,20.89
2019-02-17T08:42:16.472Z,20.87
2019-02-17T08:43:16.472Z,20.89
2019-02-17T08:44:16.445Z,20.88
2019-02-17T08:45:16.431Z,20.97
2019-02-17T08:46:16.426Z,20.97
2019-02-17T08:47:16.413Z,20.95
2019-02-17T08:48:16.518Z,20.95
2019-02-17T08:49:17.138Z,21.04
2019-02-17T08:50:16.384Z,20.97
2019-02-17T08:51:16.380Z,21.03
2019-02-17T08:52:16.358Z,21.01
2019-02-17T08:53:16.363Z,21.04
2019-02-17T08:54:16.332Z,21.01
2019-02-17T08:55:16.323Z,21.04
2019-02-17T08:56:18.596Z,21.03
2019-02-17T08:57:16.304Z,20.95
2019-02-17T08:58:16.309Z,21.06
2019-02-17T08:59:16.284Z,21.04
2019-02-17T09:00:16.269Z,21.06
2019-02-17T09:01:16.261Z,20.99
2019-02-17T09:02:17.134Z,21.09
2019-02-17T09:03:16.334Z,21.06
2019-02-17T09:04:16.396Z,21.10
2019-02-17T09:05:16.220Z,21.10
2019-02-17T09:06:16.208Z,21.01
2019-02-17T09:07:16.189Z,21.04
2019-02-17T09:08:16.654Z,20.99
2019-02-17T09:09:17.131Z,21.13
2019-02-17T09:10:17.129Z,21.12
2019-02-17T09:11:16.153Z,21.12
2019-02-17T09:12:16.140Z,21.07
2019-02-17T09:13:18.499Z,21.03
2019-02-17T09:14:16.117Z,21.17
2019-02-17T09:15:16.107Z,21.17
2019-02-17T09:16:16.102Z,21.09
2019-02-17T09:17:16.083Z,21.03
2019-02-17T09:18:16.099Z,21.12
2019-02-17T09:19:16.060Z,21.09
2019-02-17T09:20:16.651Z,21.07
2019-02-17T09:21:16.043Z,21.16
2019-02-17T09:22:16.632Z,21.13
2019-02-17T09:23:16.032Z,21.13
2019-02-17T09:24:16.006Z,21.14
2019-02-17T09:25:16.004Z,21.13
2019-02-17T09:26:16.008Z,21.17
2019-02-17T09:27:16.633Z,21.14
2019-02-17T09:28:16.151Z,21.16
2019-02-17T09:29:15.953Z,21.22
2019-02-17T09:30:16.634Z,21.17
2019-02-17T09:31:15.929Z,21.14
2019-02-17T09:32:16.922Z,21.17
2019-02-17T09:33:16.138Z,21.17
2019-02-17T09:34:15.898Z,21.17
2019-02-17T09:35:15.916Z,21.21
2019-02-17T09:36:16.637Z,21.29
2019-02-17T09:37:16.633Z,21.24
2019-02-17T09:38:17.158Z,21.19
2019-02-17T09:39:15.846Z,21.22
2019-02-17T09:40:15.846Z,21.19
2019-02-17T09:41:15.825Z,21.24
2019-02-17T09:42:15.827Z,21.25
2019-02-17T09:43:15.828Z,21.28
2019-02-17T09:44:16.633Z,21.28
2019-02-17T09:45:15.782Z,21.27
2019-02-17T09:46:15.776Z,21.27
2019-02-17T09:47:15.768Z,21.25
2019-02-17T09:48:15.761Z,21.31
2019-02-17T09:49:15.739Z,21.32
2019-02-17T09:50:16.637Z,21.24
2019-02-17T09:51:15.725Z,21.31
2019-02-17T09:52:15.706Z,21.32
2019-02-17T09:53:15.707Z,21.35
2019-02-17T09:54:15.679Z,21.40
2019-02-17T09:55:15.674Z,21.31
2019-02-17T09:56:15.678Z,21.31
2019-02-17T09:57:15.650Z,21.28
2019-02-17T09:58:15.651Z,21.31
2019-02-17T09:59:15.653Z,21.40
2019-02-17T10:00:15.618Z,21.28
2019-02-17T10:01:15.609Z,21.35
2019-02-17T10:02:15.600Z,21.37
2019-02-17T10:03:16.133Z,21.43
2019-02-17T10:04:15.585Z,21.29
2019-02-17T10:05:15.559Z,21.34
2019-02-17T10:06:15.548Z,21.32
2019-02-17T10:07:16.144Z,21.35
2019-02-17T10:08:15.545Z,21.35
2019-02-17T10:09:15.654Z,21.38
2019-02-17T10:10:15.508Z,21.37
2019-02-17T10:11:16.133Z,21.38
2019-02-17T10:12:15.493Z,21.38
2019-02-17T10:13:15.502Z,21.38
2019-02-17T10:14:15.492Z,21.47
2019-02-17T10:15:15.455Z,21.38
2019-02-17T10:16:15.442Z,21.42
2019-02-17T10:17:15.456Z,21.43
2019-02-17T10:18:15.421Z,21.50
2019-02-17T10:19:15.438Z,21.46
2019-02-17T10:20:15.405Z,21.50
2019-02-17T10:21:16.133Z,21.46
2019-02-17T10:22:16.137Z,21.52
2019-02-17T10:23:15.374Z,21.49
2019-02-17T10:24:15.369Z,21.42
2019-02-17T10:25:15.344Z,21.54
2019-02-17T10:26:15.335Z,21.49
2019-02-17T10:27:15.327Z,21.53
2019-02-17T10:28:16.133Z,21.52
2019-02-17T10:29:15.313Z,21.53
2019-02-17T10:30:15.289Z,21.54
2019-02-17T10:31:15.277Z,21.56
2019-02-17T10:32:15.296Z,21.56
2019-02-17T10:33:15.315Z,21.50
2019-02-17T10:34:15.262Z,21.53
2019-02-17T10:35:15.237Z,21.49
2019-02-17T10:36:16.139Z,21.50
2019-02-17T10:37:16.136Z,21.59
2019-02-17T10:38:15.224Z,21.61
2019-02-17T10:39:15.650Z,21.67
2019-02-17T10:40:16.136Z,21.65
2019-02-17T10:41:15.173Z,21.64
2019-02-17T10:42:15.162Z,21.68
2019-02-17T10:43:16.135Z,21.69
2019-02-17T10:44:15.163Z,21.69
2019-02-17T10:45:15.125Z,21.71
2019-02-17T10:46:15.119Z,21.72
2019-02-17T10:47:15.114Z,21.72
2019-02-17T10:48:15.101Z,21.72
2019-02-17T10:49:15.150Z,21.77
2019-02-17T10:50:15.076Z,21.75
2019-02-17T10:51:15.063Z,21.71
2019-02-17T10:52:15.656Z,21.72
2019-02-17T10:53:15.062Z,21.80
2019-02-17T10:54:15.045Z,21.71
2019-02-17T10:55:15.020Z,21.79
2019-02-17T10:56:15.006Z,21.79
2019-02-17T10:57:15.638Z,21.82
2019-02-17T10:58:14.990Z,21.80
2019-02-17T10:59:15.183Z,21.79
2019-02-17T11:00:14.966Z,21.77
2019-02-17T11:01:14.952Z,21.91
2019-02-17T11:02:15.639Z,21.86
2019-02-17T11:03:14.933Z,21.88
2019-02-17T11:04:14.951Z,21.90
2019-02-17T11:05:14.910Z,21.94
2019-02-17T11:06:14.900Z,21.94
2019-02-17T11:07:15.634Z,21.91
2019-02-17T11:08:14.894Z,21.90
2019-02-17T11:09:15.151Z,21.86
2019-02-17T11:10:14.857Z,21.91
2019-02-17T11:11:14.837Z,21.91
2019-02-17T11:12:14.832Z,21.88
2019-02-17T11:13:14.840Z,21.88
2019-02-17T11:14:15.153Z,22.00
2019-02-17T11:15:14.802Z,21.91
2019-02-17T11:16:14.790Z,21.98
2019-02-17T11:17:14.780Z,22.02
2019-02-17T11:18:14.774Z,21.98
2019-02-17T11:19:15.159Z,22.06
2019-02-17T11:20:14.744Z,21.98
2019-02-17T11:21:15.647Z,21.98
2019-02-17T11:22:22.913Z,22.00
2019-02-17T11:23:15.650Z,22.05
2019-02-17T11:24:14.712Z,22.05
2019-02-17T11:25:15.635Z,22.12
2019-02-17T11:26:15.637Z,22.09
2019-02-17T11:27:15.641Z,22.06
2019-02-17T11:28:14.688Z,22.09
2019-02-17T11:29:15.152Z,22.02
2019-02-17T11:30:14.644Z,22.14
2019-02-17T11:31:15.144Z,22.05
2019-02-17T11:32:15.144Z,22.12
2019-02-17T11:33:14.621Z,22.14
2019-02-17T11:34:14.607Z,22.17
2019-02-17T11:35:14.584Z,22.18
2019-02-17T11:36:15.150Z,22.20
2019-02-17T11:37:14.572Z,22.21
2019-02-17T11:38:15.186Z,22.21
2019-02-17T11:39:14.664Z,22.21
2019-02-17T11:40:14.551Z,22.22
2019-02-17T11:41:14.512Z,22.25
2019-02-17T11:42:14.535Z,22.25
2019-02-17T11:43:14.515Z,22.22
2019-02-17T11:44:14.670Z,22.20
2019-02-17T11:45:14.481Z,22.28
2019-02-17T11:46:14.488Z,22.22
2019-02-17T11:47:14.473Z,22.22
2019-02-17T11:48:14.453Z,22.28
2019-02-17T11:49:14.675Z,22.24
2019-02-17T11:50:15.754Z,22.31
2019-02-17T11:51:14.423Z,22.30
2019-02-17T11:52:14.421Z,22.37
2019-02-17T11:53:15.184Z,22.37
2019-02-17T11:54:14.681Z,22.36
2019-02-17T11:55:15.159Z,22.31
2019-02-17T11:56:14.392Z,22.33
2019-02-17T11:57:14.398Z,22.37
2019-02-17T11:58:15.155Z,22.35
2019-02-17T11:59:14.361Z,22.31
2019-02-17T12:00:14.344Z,22.28
2019-02-17T12:01:14.313Z,22.42
2019-02-17T12:02:24.391Z,22.36
2019-02-17T12:03:14.290Z,22.39
2019-02-17T12:04:14.682Z,22.43
2019-02-17T12:05:14.250Z,22.45
2019-02-17T12:06:15.203Z,22.43
2019-02-17T12:07:14.278Z,22.46
2019-02-17T12:08:14.253Z,22.51
2019-02-17T12:09:15.151Z,22.43
2019-02-17T12:10:14.227Z,22.51
2019-02-17T12:11:14.205Z,22.47
2019-02-17T12:12:15.139Z,22.47
2019-02-17T12:13:15.168Z,22.49
2019-02-17T12:14:14.171Z,22.47
2019-02-17T12:15:14.217Z,22.47
2019-02-17T12:16:14.136Z,22.47
2019-02-17T12:17:14.685Z,22.46
2019-02-17T12:18:14.122Z,22.36
2019-02-17T12:19:14.120Z,22.51
2019-02-17T12:20:14.171Z,22.46
2019-02-17T12:21:14.079Z,22.52
2019-02-17T12:22:14.655Z,22.45
2019-02-17T12:23:14.062Z,22.47
2019-02-17T12:24:14.657Z,22.49
2019-02-17T12:25:14.075Z,22.57
2019-02-17T12:26:14.031Z,22.46
2019-02-17T12:27:14.650Z,22.51
2019-02-17T12:28:14.056Z,22.58
2019-02-17T12:29:14.014Z,22.52
2019-02-17T12:30:14.165Z,22.49
2019-02-17T12:31:14.037Z,22.52
2019-02-17T12:32:13.972Z,22.45
2019-02-17T12:33:19.200Z,22.54
2019-02-17T12:34:14.012Z,22.51
2019-02-17T12:35:14.177Z,22.55
2019-02-17T12:36:13.926Z,22.49
2019-02-17T12:37:13.926Z,22.49
2019-02-17T12:38:13.912Z,22.49
2019-02-17T12:39:15.161Z,22.51
2019-02-17T12:40:13.959Z,22.57
2019-02-17T12:41:13.931Z,22.49
2019-02-17T12:42:13.866Z,22.54
2019-02-17T12:43:13.878Z,22.55
2019-02-17T12:44:13.844Z,22.47
2019-02-17T12:45:17.982Z,22.54
2019-02-17T12:46:14.642Z,22.51
2019-02-17T12:47:13.815Z,22.61
2019-02-17T12:48:13.809Z,22.61
2019-02-17T12:49:13.809Z,22.51
2019-02-17T12:50:14.164Z,22.68
2019-02-17T12:51:13.763Z,22.60
2019-02-17T12:52:13.777Z,22.62